sensor_id;sensor_type;location;lat;lon;timestamp;P1;durP1;ratioP1;P2;durP2;ratioP2
9661;SDS011;24982;52.344;12.990;2022-10-22T00:00:58;11.82;;;10.55;;
9661;SDS011;24982;52.344;12.990;2022-10-22T00:04:00;11.40;;;10.15;;
9661;SDS011;24982;52.344;12.990;2022-10-22T00:07:03;11.75;;;10.27;;
9661;SDS011;24982;52.344;12.990;2022-10-22T00:10:05;11.77;;;10.68;;
9661;SDS011;24982;52.344;12.990;2022-10-22T00:13:09;11.55;;;10.35;;
9661;SDS011;24982;52.344;12.990;2022-10-22T00:16:11;10.63;;;9.32;;
9661;SDS011;24982;52.344;12.990;2022-10-22T00:19:14;10.43;;;9.30;;
9661;SDS011;24982;52.344;12.990;2022-10-22T00:22:17;10.02;;;9.13;;
9661;SDS011;24982;52.344;12.990;2022-10-22T00:25:19;12.20;;;9.18;;
9661;SDS011;24982;52.344;12.990;2022-10-22T00:28:21;9.77;;;8.98;;
9661;SDS011;24982;52.344;12.990;2022-10-22T00:31:24;11.98;;;8.73;;
9661;SDS011;24982;52.344;12.990;2022-10-22T00:34:25;8.98;;;8.15;;
9661;SDS011;24982;52.344;12.990;2022-10-22T00:37:29;10.50;;;8.40;;
9661;SDS011;24982;52.344;12.990;2022-10-22T00:40:31;9.43;;;8.63;;
9661;SDS011;24982;52.344;12.990;2022-10-22T00:43:51;10.25;;;9.18;;
9661;SDS011;24982;52.344;12.990;2022-10-22T00:46:54;11.55;;;10.43;;
9661;SDS011;24982;52.344;12.990;2022-10-22T00:49:56;12.27;;;11.07;;
9661;SDS011;24982;52.344;12.990;2022-10-22T00:53:02;14.02;;;11.70;;
9661;SDS011;24982;52.344;12.990;2022-10-22T00:56:06;13.93;;;12.48;;
9661;SDS011;24982;52.344;12.990;2022-10-22T00:59:10;16.55;;;12.70;;
9661;SDS011;24982;52.344;12.990;2022-10-22T01:02:14;16.92;;;13.05;;
9661;SDS011;24982;52.344;12.990;2022-10-22T01:05:17;17.08;;;13.50;;
9661;SDS011;24982;52.344;12.990;2022-10-22T01:08:21;17.63;;;14.23;;
9661;SDS011;24982;52.344;12.990;2022-10-22T01:11:32;14.55;;;12.80;;
9661;SDS011;24982;52.344;12.990;2022-10-22T01:14:40;15.32;;;13.18;;
9661;SDS011;24982;52.344;12.990;2022-10-22T01:17:58;13.45;;;12.13;;
9661;SDS011;24982;52.344;12.990;2022-10-22T01:21:07;14.07;;;12.63;;
9661;SDS011;24982;52.344;12.990;2022-10-22T01:27:51;12.43;;;11.18;;
9661;SDS011;24982;52.344;12.990;2022-10-22T01:31:02;12.05;;;10.85;;
9661;SDS011;24982;52.344;12.990;2022-10-22T01:34:08;12.20;;;10.55;;
9661;SDS011;24982;52.344;12.990;2022-10-22T01:37:12;12.18;;;10.57;;
9661;SDS011;24982;52.344;12.990;2022-10-22T01:40:17;11.73;;;10.52;;
9661;SDS011;24982;52.344;12.990;2022-10-22T01:43:20;11.15;;;10.07;;
9661;SDS011;24982;52.344;12.990;2022-10-22T01:46:25;10.63;;;9.63;;
9661;SDS011;24982;52.344;12.990;2022-10-22T01:49:31;11.88;;;9.98;;
9661;SDS011;24982;52.344;12.990;2022-10-22T01:52:45;11.48;;;9.82;;
9661;SDS011;24982;52.344;12.990;2022-10-22T01:55:58;12.50;;;9.38;;
9661;SDS011;24982;52.344;12.990;2022-10-22T01:59:12;11.43;;;9.52;;
9661;SDS011;24982;52.344;12.990;2022-10-22T02:02:27;11.32;;;9.13;;
9661;SDS011;24982;52.344;12.990;2022-10-22T02:05:35;10.43;;;9.05;;
9661;SDS011;24982;52.344;12.990;2022-10-22T02:08:43;9.50;;;8.60;;
9661;SDS011;24982;52.344;12.990;2022-10-22T02:11:47;9.65;;;8.75;;
9661;SDS011;24982;52.344;12.990;2022-10-22T02:14:50;9.73;;;8.82;;
9661;SDS011;24982;52.344;12.990;2022-10-22T02:17:54;11.23;;;8.85;;
9661;SDS011;24982;52.344;12.990;2022-10-22T02:20:58;12.05;;;9.20;;
9661;SDS011;24982;52.344;12.990;2022-10-22T02:24:01;11.10;;;8.63;;
9661;SDS011;24982;52.344;12.990;2022-10-22T02:27:04;9.90;;;9.00;;
9661;SDS011;24982;52.344;12.990;2022-10-22T02:30:11;11.50;;;8.23;;
9661;SDS011;24982;52.344;12.990;2022-10-22T02:33:18;10.93;;;8.70;;
9661;SDS011;24982;52.344;12.990;2022-10-22T02:36:23;9.68;;;8.68;;
9661;SDS011;24982;52.344;12.990;2022-10-22T02:39:26;8.95;;;8.05;;
9661;SDS011;24982;52.344;12.990;2022-10-22T02:42:29;11.52;;;9.07;;
9661;SDS011;24982;52.344;12.990;2022-10-22T02:45:31;9.35;;;7.90;;
9661;SDS011;24982;52.344;12.990;2022-10-22T02:48:35;9.02;;;8.18;;
9661;SDS011;24982;52.344;12.990;2022-10-22T02:51:37;13.35;;;8.45;;
9661;SDS011;24982;52.344;12.990;2022-10-22T02:54:39;8.85;;;7.95;;
9661;SDS011;24982;52.344;12.990;2022-10-22T02:57:41;9.32;;;8.05;;
9661;SDS011;24982;52.344;12.990;2022-10-22T03:00:43;9.25;;;8.07;;
9661;SDS011;24982;52.344;12.990;2022-10-22T03:03:46;11.77;;;7.63;;
9661;SDS011;24982;52.344;12.990;2022-10-22T03:06:48;11.45;;;7.45;;
9661;SDS011;24982;52.344;12.990;2022-10-22T03:09:50;9.02;;;8.23;;
9661;SDS011;24982;52.344;12.990;2022-10-22T03:12:52;9.27;;;8.23;;
9661;SDS011;24982;52.344;12.990;2022-10-22T03:15:55;8.27;;;7.57;;
9661;SDS011;24982;52.344;12.990;2022-10-22T03:18:58;9.00;;;8.07;;
9661;SDS011;24982;52.344;12.990;2022-10-22T03:22:01;11.00;;;9.73;;
9661;SDS011;24982;52.344;12.990;2022-10-22T03:25:06;11.20;;;9.27;;
9661;SDS011;24982;52.344;12.990;2022-10-22T03:28:11;11.55;;;9.10;;
9661;SDS011;24982;52.344;12.990;2022-10-22T03:31:15;9.65;;;8.65;;
9661;SDS011;24982;52.344;12.990;2022-10-22T03:34:18;10.50;;;8.98;;
9661;SDS011;24982;52.344;12.990;2022-10-22T03:37:21;13.02;;;10.13;;
9661;SDS011;24982;52.344;12.990;2022-10-22T03:40:24;11.00;;;9.93;;
9661;SDS011;24982;52.344;12.990;2022-10-22T03:43:26;14.38;;;11.32;;
9661;SDS011;24982;52.344;12.990;2022-10-22T03:46:28;13.20;;;9.98;;
9661;SDS011;24982;52.344;12.990;2022-10-22T03:49:32;12.88;;;11.68;;
9661;SDS011;24982;52.344;12.990;2022-10-22T03:52:34;14.23;;;12.80;;
9661;SDS011;24982;52.344;12.990;2022-10-22T03:55:39;13.00;;;11.65;;
9661;SDS011;24982;52.344;12.990;2022-10-22T03:58:41;12.68;;;11.45;;
9661;SDS011;24982;52.344;12.990;2022-10-22T04:01:43;13.77;;;12.23;;
9661;SDS011;24982;52.344;12.990;2022-10-22T04:04:46;14.70;;;12.43;;
9661;SDS011;24982;52.344;12.990;2022-10-22T04:07:49;13.48;;;12.07;;
9661;SDS011;24982;52.344;12.990;2022-10-22T04:10:51;15.98;;;12.38;;
9661;SDS011;24982;52.344;12.990;2022-10-22T04:13:53;14.85;;;12.80;;
9661;SDS011;24982;52.344;12.990;2022-10-22T04:16:55;13.05;;;11.70;;
9661;SDS011;24982;52.344;12.990;2022-10-22T04:19:58;15.02;;;12.43;;
9661;SDS011;24982;52.344;12.990;2022-10-22T04:23:00;14.23;;;12.32;;
9661;SDS011;24982;52.344;12.990;2022-10-22T04:26:03;16.33;;;13.48;;
9661;SDS011;24982;52.344;12.990;2022-10-22T04:29:06;18.15;;;12.43;;
9661;SDS011;24982;52.344;12.990;2022-10-22T04:32:08;12.35;;;11.15;;
9661;SDS011;24982;52.344;12.990;2022-10-22T04:35:12;12.18;;;10.90;;
9661;SDS011;24982;52.344;12.990;2022-10-22T04:38:14;13.10;;;10.07;;
9661;SDS011;24982;52.344;12.990;2022-10-22T04:41:17;11.38;;;10.18;;
9661;SDS011;24982;52.344;12.990;2022-10-22T04:44:20;10.93;;;9.82;;
9661;SDS011;24982;52.344;12.990;2022-10-22T04:47:22;14.68;;;10.25;;
9661;SDS011;24982;52.344;12.990;2022-10-22T04:50:26;12.95;;;11.15;;
9661;SDS011;24982;52.344;12.990;2022-10-22T04:53:28;11.55;;;9.65;;
9661;SDS011;24982;52.344;12.990;2022-10-22T04:56:30;10.90;;;9.80;;
9661;SDS011;24982;52.344;12.990;2022-10-22T04:59:33;12.35;;;9.80;;
9661;SDS011;24982;52.344;12.990;2022-10-22T05:02:35;11.35;;;9.65;;
9661;SDS011;24982;52.344;12.990;2022-10-22T05:05:38;10.77;;;9.68;;
9661;SDS011;24982;52.344;12.990;2022-10-22T05:08:40;10.00;;;9.00;;
9661;SDS011;24982;52.344;12.990;2022-10-22T05:11:44;9.70;;;8.80;;
9661;SDS011;24982;52.344;12.990;2022-10-22T05:14:48;9.50;;;8.52;;
9661;SDS011;24982;52.344;12.990;2022-10-22T05:17:50;9.48;;;8.57;;
9661;SDS011;24982;52.344;12.990;2022-10-22T05:20:53;11.27;;;10.07;;
9661;SDS011;24982;52.344;12.990;2022-10-22T05:23:55;10.95;;;9.90;;
9661;SDS011;24982;52.344;12.990;2022-10-22T05:26:59;9.65;;;8.85;;
9661;SDS011;24982;52.344;12.990;2022-10-22T05:30:01;9.85;;;8.82;;
9661;SDS011;24982;52.344;12.990;2022-10-22T05:33:03;9.93;;;8.93;;
9661;SDS011;24982;52.344;12.990;2022-10-22T05:36:07;9.43;;;8.45;;
9661;SDS011;24982;52.344;12.990;2022-10-22T05:39:12;10.07;;;9.10;;
9661;SDS011;24982;52.344;12.990;2022-10-22T05:42:14;10.18;;;9.18;;
9661;SDS011;24982;52.344;12.990;2022-10-22T05:45:16;10.00;;;9.02;;
9661;SDS011;24982;52.344;12.990;2022-10-22T05:48:19;11.82;;;10.35;;
9661;SDS011;24982;52.344;12.990;2022-10-22T05:51:22;10.57;;;9.35;;
9661;SDS011;24982;52.344;12.990;2022-10-22T05:54:25;12.80;;;9.70;;
9661;SDS011;24982;52.344;12.990;2022-10-22T05:57:27;10.90;;;9.48;;
9661;SDS011;24982;52.344;12.990;2022-10-22T06:00:29;11.10;;;9.95;;
9661;SDS011;24982;52.344;12.990;2022-10-22T06:03:33;11.60;;;10.40;;
9661;SDS011;24982;52.344;12.990;2022-10-22T06:06:38;14.60;;;10.30;;
9661;SDS011;24982;52.344;12.990;2022-10-22T06:09:43;13.27;;;10.05;;
9661;SDS011;24982;52.344;12.990;2022-10-22T06:12:47;13.13;;;9.88;;
9661;SDS011;24982;52.344;12.990;2022-10-22T06:15:49;13.07;;;9.50;;
9661;SDS011;24982;52.344;12.990;2022-10-22T06:18:52;10.30;;;9.30;;
9661;SDS011;24982;52.344;12.990;2022-10-22T06:21:55;10.02;;;9.13;;
9661;SDS011;24982;52.344;12.990;2022-10-22T06:24:57;11.20;;;8.90;;
9661;SDS011;24982;52.344;12.990;2022-10-22T06:28:00;10.32;;;9.32;;
9661;SDS011;24982;52.344;12.990;2022-10-22T06:31:04;9.32;;;8.40;;
9661;SDS011;24982;52.344;12.990;2022-10-22T06:34:08;10.75;;;9.52;;
9661;SDS011;24982;52.344;12.990;2022-10-22T06:37:13;10.55;;;9.55;;
9661;SDS011;24982;52.344;12.990;2022-10-22T06:40:15;9.23;;;8.43;;
9661;SDS011;24982;52.344;12.990;2022-10-22T06:43:18;10.23;;;9.20;;
9661;SDS011;24982;52.344;12.990;2022-10-22T06:46:20;10.82;;;8.68;;
9661;SDS011;24982;52.344;12.990;2022-10-22T06:49:22;9.77;;;8.88;;
9661;SDS011;24982;52.344;12.990;2022-10-22T06:52:26;10.73;;;8.63;;
9661;SDS011;24982;52.344;12.990;2022-10-22T06:55:28;12.95;;;9.13;;
9661;SDS011;24982;52.344;12.990;2022-10-22T06:58:30;13.98;;;9.75;;
9661;SDS011;24982;52.344;12.990;2022-10-22T07:01:32;10.77;;;8.80;;
9661;SDS011;24982;52.344;12.990;2022-10-22T07:04:36;10.82;;;9.70;;
9661;SDS011;24982;52.344;12.990;2022-10-22T07:07:39;10.85;;;9.77;;
9661;SDS011;24982;52.344;12.990;2022-10-22T07:10:41;11.13;;;9.23;;
9661;SDS011;24982;52.344;12.990;2022-10-22T07:13:43;14.25;;;11.07;;
9661;SDS011;24982;52.344;12.990;2022-10-22T07:16:46;12.07;;;10.88;;
9661;SDS011;24982;52.344;12.990;2022-10-22T07:19:48;12.05;;;10.65;;
9661;SDS011;24982;52.344;12.990;2022-10-22T07:22:51;12.27;;;11.07;;
9661;SDS011;24982;52.344;12.990;2022-10-22T07:25:53;12.30;;;11.20;;
9661;SDS011;24982;52.344;12.990;2022-10-22T07:28:55;12.77;;;11.20;;
9661;SDS011;24982;52.344;12.990;2022-10-22T07:31:57;13.48;;;11.40;;
9661;SDS011;24982;52.344;12.990;2022-10-22T07:34:59;13.70;;;11.50;;
9661;SDS011;24982;52.344;12.990;2022-10-22T07:38:02;12.02;;;10.70;;
9661;SDS011;24982;52.344;12.990;2022-10-22T07:41:04;10.90;;;9.68;;
9661;SDS011;24982;52.344;12.990;2022-10-22T07:44:06;10.50;;;9.50;;
9661;SDS011;24982;52.344;12.990;2022-10-22T07:47:08;10.20;;;9.15;;
9661;SDS011;24982;52.344;12.990;2022-10-22T07:50:10;10.55;;;9.25;;
9661;SDS011;24982;52.344;12.990;2022-10-22T07:53:14;14.10;;;10.68;;
9661;SDS011;24982;52.344;12.990;2022-10-22T07:56:20;13.98;;;10.35;;
9661;SDS011;24982;52.344;12.990;2022-10-22T07:59:22;12.98;;;10.40;;
9661;SDS011;24982;52.344;12.990;2022-10-22T08:02:24;16.17;;;12.82;;
9661;SDS011;24982;52.344;12.990;2022-10-22T08:05:27;18.85;;;11.68;;
9661;SDS011;24982;52.344;12.990;2022-10-22T08:08:30;15.98;;;11.90;;
9661;SDS011;24982;52.344;12.990;2022-10-22T08:11:32;15.45;;;12.27;;
9661;SDS011;24982;52.344;12.990;2022-10-22T08:14:34;13.45;;;12.15;;
9661;SDS011;24982;52.344;12.990;2022-10-22T08:17:36;15.60;;;13.85;;
9661;SDS011;24982;52.344;12.990;2022-10-22T08:20:38;14.40;;;12.68;;
9661;SDS011;24982;52.344;12.990;2022-10-22T08:23:43;15.75;;;12.85;;
9661;SDS011;24982;52.344;12.990;2022-10-22T08:26:45;14.85;;;12.82;;
9661;SDS011;24982;52.344;12.990;2022-10-22T08:29:47;13.73;;;12.35;;
9661;SDS011;24982;52.344;12.990;2022-10-22T08:32:49;14.07;;;12.02;;
9661;SDS011;24982;52.344;12.990;2022-10-22T08:35:51;20.02;;;12.23;;
9661;SDS011;24982;52.344;12.990;2022-10-22T08:38:55;13.75;;;11.60;;
9661;SDS011;24982;52.344;12.990;2022-10-22T08:41:58;13.00;;;11.05;;
9661;SDS011;24982;52.344;12.990;2022-10-22T08:45:10;13.50;;;12.10;;
9661;SDS011;24982;52.344;12.990;2022-10-22T08:48:21;13.05;;;11.07;;
9661;SDS011;24982;52.344;12.990;2022-10-22T08:51:32;11.27;;;10.07;;
9661;SDS011;24982;52.344;12.990;2022-10-22T08:54:42;13.30;;;11.23;;
9661;SDS011;24982;52.344;12.990;2022-10-22T08:57:53;10.88;;;9.63;;
9661;SDS011;24982;52.344;12.990;2022-10-22T09:01:02;14.75;;;10.07;;
9661;SDS011;24982;52.344;12.990;2022-10-22T09:04:11;11.20;;;9.85;;
9661;SDS011;24982;52.344;12.990;2022-10-22T09:07:24;10.65;;;9.68;;
9661;SDS011;24982;52.344;12.990;2022-10-22T09:10:28;13.23;;;10.80;;
9661;SDS011;24982;52.344;12.990;2022-10-22T09:13:35;15.13;;;10.50;;
9661;SDS011;24982;52.344;12.990;2022-10-22T09:16:41;9.85;;;8.95;;
9661;SDS011;24982;52.344;12.990;2022-10-22T09:19:55;10.65;;;9.25;;
9661;SDS011;24982;52.344;12.990;2022-10-22T09:23:12;12.95;;;9.43;;
9661;SDS011;24982;52.344;12.990;2022-10-22T09:26:26;12.43;;;9.70;;
9661;SDS011;24982;52.344;12.990;2022-10-22T09:29:30;12.05;;;9.07;;
9661;SDS011;24982;52.344;12.990;2022-10-22T09:32:33;10.07;;;8.55;;
9661;SDS011;24982;52.344;12.990;2022-10-22T09:35:42;9.55;;;8.55;;
9661;SDS011;24982;52.344;12.990;2022-10-22T09:38:47;12.07;;;8.88;;
9661;SDS011;24982;52.344;12.990;2022-10-22T09:41:51;8.32;;;7.53;;
9661;SDS011;24982;52.344;12.990;2022-10-22T09:44:55;10.52;;;8.32;;
9661;SDS011;24982;52.344;12.990;2022-10-22T09:48:02;11.75;;;7.72;;
9661;SDS011;24982;52.344;12.990;2022-10-22T09:51:12;10.60;;;7.57;;
9661;SDS011;24982;52.344;12.990;2022-10-22T09:54:18;7.97;;;7.28;;
9661;SDS011;24982;52.344;12.990;2022-10-22T09:57:23;7.22;;;6.50;;
9661;SDS011;24982;52.344;12.990;2022-10-22T10:00:26;6.93;;;6.22;;
9661;SDS011;24982;52.344;12.990;2022-10-22T10:03:30;8.07;;;6.70;;
9661;SDS011;24982;52.344;12.990;2022-10-22T10:06:33;8.30;;;5.93;;
9661;SDS011;24982;52.344;12.990;2022-10-22T10:09:38;11.43;;;6.35;;
9661;SDS011;24982;52.344;12.990;2022-10-22T10:12:42;6.43;;;5.65;;
9661;SDS011;24982;52.344;12.990;2022-10-22T10:15:50;7.05;;;5.78;;
9661;SDS011;24982;52.344;12.990;2022-10-22T10:19:00;8.50;;;6.50;;
9661;SDS011;24982;52.344;12.990;2022-10-22T10:22:21;10.80;;;6.57;;
9661;SDS011;24982;52.344;12.990;2022-10-22T10:25:38;6.53;;;5.72;;
9661;SDS011;24982;52.344;12.990;2022-10-22T10:28:56;8.45;;;5.90;;
9661;SDS011;24982;52.344;12.990;2022-10-22T10:32:08;10.00;;;5.85;;
9661;SDS011;24982;52.344;12.990;2022-10-22T10:35:23;5.80;;;5.20;;
9661;SDS011;24982;52.344;12.990;2022-10-22T10:38:31;10.80;;;4.90;;
9661;SDS011;24982;52.344;12.990;2022-10-22T10:41:43;6.97;;;6.28;;
9661;SDS011;24982;52.344;12.990;2022-10-22T10:44:56;8.93;;;6.22;;
9661;SDS011;24982;52.344;12.990;2022-10-22T10:48:11;7.20;;;5.10;;
9661;SDS011;24982;52.344;12.990;2022-10-22T10:51:33;5.82;;;5.20;;
9661;SDS011;24982;52.344;12.990;2022-10-22T10:54:43;15.43;;;11.15;;
9661;SDS011;24982;52.344;12.990;2022-10-22T10:57:55;11.32;;;4.50;;
9661;SDS011;24982;52.344;12.990;2022-10-22T11:01:08;6.35;;;4.35;;
9661;SDS011;24982;52.344;12.990;2022-10-22T11:04:32;5.88;;;5.05;;
9661;SDS011;24982;52.344;12.990;2022-10-22T11:07:53;5.70;;;3.58;;
9661;SDS011;24982;52.344;12.990;2022-10-22T11:10:58;9.10;;;7.47;;
9661;SDS011;24982;52.344;12.990;2022-10-22T11:14:04;8.52;;;4.15;;
9661;SDS011;24982;52.344;12.990;2022-10-22T11:17:13;3.67;;;3.10;;
9661;SDS011;24982;52.344;12.990;2022-10-22T11:20:18;25.60;;;21.08;;
9661;SDS011;24982;52.344;12.990;2022-10-22T11:23:27;9.50;;;7.90;;
9661;SDS011;24982;52.344;12.990;2022-10-22T11:26:35;6.15;;;4.53;;
9661;SDS011;24982;52.344;12.990;2022-10-22T11:29:48;3.28;;;3.00;;
9661;SDS011;24982;52.344;12.990;2022-10-22T11:32:56;12.27;;;9.57;;
9661;SDS011;24982;52.344;12.990;2022-10-22T11:36:02;5.57;;;3.70;;
9661;SDS011;24982;52.344;12.990;2022-10-22T11:39:05;6.10;;;4.78;;
9661;SDS011;24982;52.344;12.990;2022-10-22T11:42:09;4.38;;;2.72;;
9661;SDS011;24982;52.344;12.990;2022-10-22T11:45:26;4.60;;;2.65;;
9661;SDS011;24982;52.344;12.990;2022-10-22T11:48:35;5.75;;;4.60;;
9661;SDS011;24982;52.344;12.990;2022-10-22T11:51:38;4.78;;;2.63;;
9661;SDS011;24982;52.344;12.990;2022-10-22T11:54:41;4.70;;;2.90;;
9661;SDS011;24982;52.344;12.990;2022-10-22T11:57:46;4.15;;;2.60;;
9661;SDS011;24982;52.344;12.990;2022-10-22T12:00:48;6.15;;;3.10;;
9661;SDS011;24982;52.344;12.990;2022-10-22T12:03:52;7.30;;;5.55;;
9661;SDS011;24982;52.344;12.990;2022-10-22T12:07:27;7.07;;;4.45;;
9661;SDS011;24982;52.344;12.990;2022-10-22T12:10:34;4.57;;;3.10;;
9661;SDS011;24982;52.344;12.990;2022-10-22T12:13:57;3.78;;;2.75;;
9661;SDS011;24982;52.344;12.990;2022-10-22T12:17:06;6.75;;;5.63;;
9661;SDS011;24982;52.344;12.990;2022-10-22T12:20:12;14.88;;;9.35;;
9661;SDS011;24982;52.344;12.990;2022-10-22T12:23:16;6.90;;;3.72;;
9661;SDS011;24982;52.344;12.990;2022-10-22T12:26:24;6.88;;;4.95;;
9661;SDS011;24982;52.344;12.990;2022-10-22T12:29:30;2.58;;;2.10;;
9661;SDS011;24982;52.344;12.990;2022-10-22T12:32:33;5.13;;;2.30;;
9661;SDS011;24982;52.344;12.990;2022-10-22T12:35:42;8.75;;;2.75;;
9661;SDS011;24982;52.344;12.990;2022-10-22T12:38:45;2.38;;;2.17;;
9661;SDS011;24982;52.344;12.990;2022-10-22T12:41:48;2.75;;;2.00;;
9661;SDS011;24982;52.344;12.990;2022-10-22T12:44:53;13.98;;;5.22;;
9661;SDS011;24982;52.344;12.990;2022-10-22T12:47:56;9.07;;;6.00;;
9661;SDS011;24982;52.344;12.990;2022-10-22T12:51:01;10.10;;;5.97;;
9661;SDS011;24982;52.344;12.990;2022-10-22T12:54:07;6.28;;;2.97;;
9661;SDS011;24982;52.344;12.990;2022-10-22T12:57:14;6.25;;;2.30;;
9661;SDS011;24982;52.344;12.990;2022-10-22T13:00:19;4.75;;;2.33;;
9661;SDS011;24982;52.344;12.990;2022-10-22T13:03:27;7.70;;;3.13;;
9661;SDS011;24982;52.344;12.990;2022-10-22T13:06:32;4.75;;;3.50;;
9661;SDS011;24982;52.344;12.990;2022-10-22T13:09:38;5.45;;;2.10;;
9661;SDS011;24982;52.344;12.990;2022-10-22T13:12:43;6.47;;;3.80;;
9661;SDS011;24982;52.344;12.990;2022-10-22T13:15:48;5.47;;;2.65;;
9661;SDS011;24982;52.344;12.990;2022-10-22T13:18:51;6.78;;;2.08;;
9661;SDS011;24982;52.344;12.990;2022-10-22T13:21:55;4.30;;;2.60;;
9661;SDS011;24982;52.344;12.990;2022-10-22T13:24:57;3.65;;;2.20;;
9661;SDS011;24982;52.344;12.990;2022-10-22T13:28:12;3.28;;;2.25;;
9661;SDS011;24982;52.344;12.990;2022-10-22T13:31:21;7.18;;;3.88;;
9661;SDS011;24982;52.344;12.990;2022-10-22T13:34:25;8.25;;;3.10;;
9661;SDS011;24982;52.344;12.990;2022-10-22T13:37:36;6.40;;;3.00;;
9661;SDS011;24982;52.344;12.990;2022-10-22T13:40:38;5.80;;;2.80;;
9661;SDS011;24982;52.344;12.990;2022-10-22T13:43:40;6.00;;;2.80;;
9661;SDS011;24982;52.344;12.990;2022-10-22T13:46:42;7.32;;;2.60;;
9661;SDS011;24982;52.344;12.990;2022-10-22T13:49:45;5.35;;;2.75;;
9661;SDS011;24982;52.344;12.990;2022-10-22T13:52:49;9.90;;;3.53;;
9661;SDS011;24982;52.344;12.990;2022-10-22T13:55:52;8.18;;;3.75;;
9661;SDS011;24982;52.344;12.990;2022-10-22T13:58:55;6.97;;;2.85;;
9661;SDS011;24982;52.344;12.990;2022-10-22T14:01:57;5.47;;;3.05;;
9661;SDS011;24982;52.344;12.990;2022-10-22T14:05:05;9.88;;;3.50;;
9661;SDS011;24982;52.344;12.990;2022-10-22T14:08:10;5.43;;;3.00;;
9661;SDS011;24982;52.344;12.990;2022-10-22T14:11:14;4.63;;;3.00;;
9661;SDS011;24982;52.344;12.990;2022-10-22T14:14:16;7.55;;;2.45;;
9661;SDS011;24982;52.344;12.990;2022-10-22T14:17:18;2.92;;;1.75;;
9661;SDS011;24982;52.344;12.990;2022-10-22T14:20:21;6.50;;;2.15;;
9661;SDS011;24982;52.344;12.990;2022-10-22T14:23:27;4.18;;;2.13;;
9661;SDS011;24982;52.344;12.990;2022-10-22T14:26:31;3.08;;;2.05;;
9661;SDS011;24982;52.344;12.990;2022-10-22T14:29:34;7.85;;;3.80;;
9661;SDS011;24982;52.344;12.990;2022-10-22T14:32:36;5.05;;;2.35;;
9661;SDS011;24982;52.344;12.990;2022-10-22T14:35:38;9.00;;;3.20;;
9661;SDS011;24982;52.344;12.990;2022-10-22T14:38:41;6.55;;;2.80;;
9661;SDS011;24982;52.344;12.990;2022-10-22T14:41:44;8.00;;;2.60;;
9661;SDS011;24982;52.344;12.990;2022-10-22T14:44:47;6.32;;;2.67;;
9661;SDS011;24982;52.344;12.990;2022-10-22T14:47:49;4.10;;;2.20;;
9661;SDS011;24982;52.344;12.990;2022-10-22T14:50:54;4.68;;;2.00;;
9661;SDS011;24982;52.344;12.990;2022-10-22T14:53:57;5.07;;;2.13;;
9661;SDS011;24982;52.344;12.990;2022-10-22T14:56:59;5.55;;;1.85;;
9661;SDS011;24982;52.344;12.990;2022-10-22T15:00:02;6.60;;;2.00;;
9661;SDS011;24982;52.344;12.990;2022-10-22T15:03:05;4.85;;;2.55;;
9661;SDS011;24982;52.344;12.990;2022-10-22T15:06:07;6.55;;;2.40;;
9661;SDS011;24982;52.344;12.990;2022-10-22T15:09:10;5.32;;;2.38;;
9661;SDS011;24982;52.344;12.990;2022-10-22T15:12:12;2.95;;;2.05;;
9661;SDS011;24982;52.344;12.990;2022-10-22T15:15:14;5.40;;;3.47;;
9661;SDS011;24982;52.344;12.990;2022-10-22T15:18:16;7.82;;;4.70;;
9661;SDS011;24982;52.344;12.990;2022-10-22T15:21:19;22.42;;;13.27;;
9661;SDS011;24982;52.344;12.990;2022-10-22T15:24:23;31.25;;;17.92;;
9661;SDS011;24982;52.344;12.990;2022-10-22T15:27:26;29.75;;;19.05;;
9661;SDS011;24982;52.344;12.990;2022-10-22T15:30:27;24.73;;;16.52;;
9661;SDS011;24982;52.344;12.990;2022-10-22T15:33:29;21.25;;;13.48;;
9661;SDS011;24982;52.344;12.990;2022-10-22T15:36:31;16.83;;;12.82;;
9661;SDS011;24982;52.344;12.990;2022-10-22T15:39:37;16.17;;;10.05;;
9661;SDS011;24982;52.344;12.990;2022-10-22T15:42:40;12.27;;;8.68;;
9661;SDS011;24982;52.344;12.990;2022-10-22T15:45:42;7.68;;;6.85;;
9661;SDS011;24982;52.344;12.990;2022-10-22T15:48:44;6.78;;;5.53;;
9661;SDS011;24982;52.344;12.990;2022-10-22T15:51:46;8.52;;;5.03;;
9661;SDS011;24982;52.344;12.990;2022-10-22T15:54:50;7.82;;;4.72;;
9661;SDS011;24982;52.344;12.990;2022-10-22T15:57:52;6.32;;;3.72;;
9661;SDS011;24982;52.344;12.990;2022-10-22T16:00:54;9.45;;;3.85;;
9661;SDS011;24982;52.344;12.990;2022-10-22T16:04:03;8.73;;;3.55;;
9661;SDS011;24982;52.344;12.990;2022-10-22T16:07:06;7.55;;;3.45;;
9661;SDS011;24982;52.344;12.990;2022-10-22T16:10:09;7.35;;;3.15;;
9661;SDS011;24982;52.344;12.990;2022-10-22T16:13:13;6.30;;;3.25;;
9661;SDS011;24982;52.344;12.990;2022-10-22T16:16:15;9.82;;;3.45;;
9661;SDS011;24982;52.344;12.990;2022-10-22T16:19:18;11.57;;;4.00;;
9661;SDS011;24982;52.344;12.990;2022-10-22T16:22:21;9.88;;;4.30;;
9661;SDS011;24982;52.344;12.990;2022-10-22T16:25:24;5.82;;;4.43;;
9661;SDS011;24982;52.344;12.990;2022-10-22T16:28:26;6.82;;;5.00;;
9661;SDS011;24982;52.344;12.990;2022-10-22T16:31:28;11.95;;;8.95;;
9661;SDS011;24982;52.344;12.990;2022-10-22T16:34:30;15.68;;;12.15;;
9661;SDS011;24982;52.344;12.990;2022-10-22T16:37:32;11.07;;;7.57;;
9661;SDS011;24982;52.344;12.990;2022-10-22T16:40:35;14.13;;;8.52;;
9661;SDS011;24982;52.344;12.990;2022-10-22T16:43:38;11.57;;;8.02;;
9661;SDS011;24982;52.344;12.990;2022-10-22T16:46:40;11.65;;;7.40;;
9661;SDS011;24982;52.344;12.990;2022-10-22T16:49:42;11.60;;;7.10;;
9661;SDS011;24982;52.344;12.990;2022-10-22T16:52:44;9.85;;;5.82;;
9661;SDS011;24982;52.344;12.990;2022-10-22T16:55:47;11.38;;;6.05;;
9661;SDS011;24982;52.344;12.990;2022-10-22T16:58:50;8.77;;;6.63;;
9661;SDS011;24982;52.344;12.990;2022-10-22T17:01:53;12.43;;;6.63;;
9661;SDS011;24982;52.344;12.990;2022-10-22T17:04:56;10.85;;;6.03;;
9661;SDS011;24982;52.344;12.990;2022-10-22T17:07:58;5.20;;;4.75;;
9661;SDS011;24982;52.344;12.990;2022-10-22T17:11:05;9.18;;;5.97;;
9661;SDS011;24982;52.344;12.990;2022-10-22T17:14:07;7.88;;;5.57;;
9661;SDS011;24982;52.344;12.990;2022-10-22T17:17:10;9.45;;;5.50;;
